Arendahl, Minnesota
Current Conditions -  °F | °C
As of 9:15 AM on Saturday 25 Oct 2014 (Local Time) from KFKA Reporting Station
Clear Clear  
Wind Chill: 51°   Ceiling: Unl
Heat Index: 51°   Visibility: 10mi
Dew Point: 40°   Wind: 10mph
Humidity: 67%   Direction: 310°NW
Pressure: 30.04"   Gusts: NA
Location:  43.7298°N, 91.8267°W
Report Text: KFKA 251415Z AUTO 31009KT 10SM CLR 11/05 A3004 RMK AO2 T01050045
Loading
Personal Weather Stations






























Interactive Weather Map
Tropical Storm Tracking
New forecast layout! Learn more

10-Day Weather Forecast

Advertisements
Track Severe Weather on mobile